sensor_id;sensor_type;location;lat;lon;timestamp;pressure;altitude;pressure_sealevel;temperature;humidity
51321;BME280;38732;49.556;6.286;2023-03-04T00:01:11;100482.38;;;4.39;60.80
51321;BME280;38732;49.556;6.286;2023-03-04T00:03:39;100480.44;;;4.33;59.41
51321;BME280;38732;49.556;6.286;2023-03-04T00:06:07;100485.56;;;4.33;59.92
51321;BME280;38732;49.556;6.286;2023-03-04T00:08:36;100482.59;;;4.24;60.01
51321;BME280;38732;49.556;6.286;2023-03-04T00:11:04;100478.50;;;4.27;60.35
51321;BME280;38732;49.556;6.286;2023-03-04T00:13:32;100481.06;;;4.27;59.82
51321;BME280;38732;49.556;6.286;2023-03-04T00:16:00;100476.31;;;4.16;60.25
51321;BME280;38732;49.556;6.286;2023-03-04T00:18:28;100482.28;;;4.16;60.44
51321;BME280;38732;49.556;6.286;2023-03-04T00:20:57;100476.09;;;4.11;59.98
51321;BME280;38732;49.556;6.286;2023-03-04T00:23:25;100482.81;;;4.09;60.88
51321;BME280;38732;49.556;6.286;2023-03-04T00:25:53;100477.78;;;4.10;60.73
51321;BME280;38732;49.556;6.286;2023-03-04T00:28:21;100472.69;;;4.10;60.58
51321;BME280;38732;49.556;6.286;2023-03-04T00:30:49;100477.41;;;4.01;60.57
51321;BME280;38732;49.556;6.286;2023-03-04T00:33:17;100474.09;;;4.04;60.24
51321;BME280;38732;49.556;6.286;2023-03-04T00:35:46;100464.69;;;4.03;60.08
51321;BME280;38732;49.556;6.286;2023-03-04T00:38:14;100468.41;;;3.90;61.55
51321;BME280;38732;49.556;6.286;2023-03-04T00:40:42;100470.22;;;3.93;61.34
51321;BME280;38732;49.556;6.286;2023-03-04T00:43:10;100465.78;;;3.88;60.88
51321;BME280;38732;49.556;6.286;2023-03-04T00:45:38;100463.19;;;3.87;60.36
51321;BME280;38732;49.556;6.286;2023-03-04T00:48:07;100459.81;;;3.88;60.03
51321;BME280;38732;49.556;6.286;2023-03-04T00:50:35;100463.44;;;3.74;60.43
51321;BME280;38732;49.556;6.286;2023-03-04T00:53:04;100457.13;;;3.65;61.19
51321;BME280;38732;49.556;6.286;2023-03-04T00:55:32;100460.69;;;3.69;61.54
51321;BME280;38732;49.556;6.286;2023-03-04T00:58:01;100462.78;;;3.58;62.29
51321;BME280;38732;49.556;6.286;2023-03-04T01:00:29;100457.66;;;3.58;62.29
51321;BME280;38732;49.556;6.286;2023-03-04T01:02:57;100462.53;;;3.52;62.80
51321;BME280;38732;49.556;6.286;2023-03-04T01:05:25;100460.00;;;3.54;63.16
51321;BME280;38732;49.556;6.286;2023-03-04T01:07:54;100461.16;;;3.60;62.00
51321;BME280;38732;49.556;6.286;2023-03-04T01:10:22;100457.34;;;3.51;62.04
51321;BME280;38732;49.556;6.286;2023-03-04T01:12:50;100460.53;;;3.46;61.86
51321;BME280;38732;49.556;6.286;2023-03-04T01:15:18;100457.06;;;3.44;62.08
51321;BME280;38732;49.556;6.286;2023-03-04T01:17:47;100457.53;;;3.36;62.67
51321;BME280;38732;49.556;6.286;2023-03-04T01:20:15;100453.16;;;3.33;62.85
51321;BME280;38732;49.556;6.286;2023-03-04T01:22:43;100446.31;;;3.32;62.35
51321;BME280;38732;49.556;6.286;2023-03-04T01:25:12;100453.97;;;3.32;62.19
51321;BME280;38732;49.556;6.286;2023-03-04T01:27:40;100446.84;;;3.25;62.43
51321;BME280;38732;49.556;6.286;2023-03-04T01:30:09;100447.38;;;3.18;63.00
51321;BME280;38732;49.556;6.286;2023-03-04T01:32:37;100439.41;;;3.12;62.77
51321;BME280;38732;49.556;6.286;2023-03-04T01:35:06;100439.38;;;3.10;62.50
51321;BME280;38732;49.556;6.286;2023-03-04T01:37:34;100439.16;;;3.06;63.08
51321;BME280;38732;49.556;6.286;2023-03-04T01:40:03;100437.47;;;3.06;62.41
51321;BME280;38732;49.556;6.286;2023-03-04T01:42:33;100438.81;;;2.98;62.71
51321;BME280;38732;49.556;6.286;2023-03-04T01:45:03;100433.47;;;2.93;62.77
51321;BME280;38732;49.556;6.286;2023-03-04T01:47:33;100431.78;;;2.94;62.84
51321;BME280;38732;49.556;6.286;2023-03-04T01:50:04;100425.75;;;2.92;62.70
51321;BME280;38732;49.556;6.286;2023-03-04T01:52:39;100421.53;;;2.92;62.97
51321;BME280;38732;49.556;6.286;2023-03-04T01:55:16;100417.81;;;2.86;63.29
51321;BME280;38732;49.556;6.286;2023-03-04T01:57:47;100418.56;;;2.83;63.22
51321;BME280;38732;49.556;6.286;2023-03-04T02:02:49;100407.31;;;2.79;63.59
51321;BME280;38732;49.556;6.286;2023-03-04T02:05:19;100404.38;;;2.70;63.85
51321;BME280;38732;49.556;6.286;2023-03-04T02:07:48;100407.66;;;2.68;63.98
51321;BME280;38732;49.556;6.286;2023-03-04T02:10:17;100399.13;;;2.67;63.93
51321;BME280;38732;49.556;6.286;2023-03-04T02:12:45;100402.69;;;2.71;64.20
51321;BME280;38732;49.556;6.286;2023-03-04T02:15:13;100400.00;;;2.68;64.54
51321;BME280;38732;49.556;6.286;2023-03-04T02:17:42;100402.47;;;2.66;65.44
51321;BME280;38732;49.556;6.286;2023-03-04T02:23:25;100392.75;;;2.77;66.53
51321;BME280;38732;49.556;6.286;2023-03-04T02:26:20;100395.19;;;2.74;66.03
51321;BME280;38732;49.556;6.286;2023-03-04T02:28:50;100379.75;;;2.71;66.01
51321;BME280;38732;49.556;6.286;2023-03-04T02:33:58;100383.28;;;2.74;66.55
51321;BME280;38732;49.556;6.286;2023-03-04T02:36:28;100384.53;;;2.83;67.70
51321;BME280;38732;49.556;6.286;2023-03-04T02:39:02;100376.94;;;2.84;66.74
51321;BME280;38732;49.556;6.286;2023-03-04T02:41:31;100379.66;;;2.87;67.19
51321;BME280;38732;49.556;6.286;2023-03-04T02:43:59;100387.88;;;2.81;66.67
51321;BME280;38732;49.556;6.286;2023-03-04T02:46:28;100386.34;;;2.85;67.37
51321;BME280;38732;49.556;6.286;2023-03-04T02:48:56;100378.75;;;2.87;67.76
51321;BME280;38732;49.556;6.286;2023-03-04T02:51:24;100377.97;;;2.88;68.01
51321;BME280;38732;49.556;6.286;2023-03-04T02:53:52;100379.69;;;2.89;66.94
51321;BME280;38732;49.556;6.286;2023-03-04T02:56:20;100383.94;;;2.88;66.47
51321;BME280;38732;49.556;6.286;2023-03-04T02:58:49;100381.09;;;2.82;66.33
51321;BME280;38732;49.556;6.286;2023-03-04T03:01:17;100383.28;;;2.74;66.41
51321;BME280;38732;49.556;6.286;2023-03-04T03:03:45;100378.06;;;2.71;66.55
51321;BME280;38732;49.556;6.286;2023-03-04T03:06:13;100379.28;;;2.79;68.10
51321;BME280;38732;49.556;6.286;2023-03-04T03:08:41;100381.56;;;2.73;67.86
51321;BME280;38732;49.556;6.286;2023-03-04T03:11:10;100386.06;;;2.79;67.53
51321;BME280;38732;49.556;6.286;2023-03-04T03:13:38;100391.03;;;2.76;67.13
51321;BME280;38732;49.556;6.286;2023-03-04T03:16:06;100382.44;;;2.74;67.55
51321;BME280;38732;49.556;6.286;2023-03-04T03:18:34;100381.28;;;2.67;67.03
51321;BME280;38732;49.556;6.286;2023-03-04T03:21:02;100381.22;;;2.66;66.56
51321;BME280;38732;49.556;6.286;2023-03-04T03:23:31;100383.63;;;2.63;66.50
51321;BME280;38732;49.556;6.286;2023-03-04T03:26:00;100385.88;;;2.56;65.80
51321;BME280;38732;49.556;6.286;2023-03-04T03:28:28;100388.28;;;2.53;66.14
51321;BME280;38732;49.556;6.286;2023-03-04T03:30:56;100386.19;;;2.45;66.79
51321;BME280;38732;49.556;6.286;2023-03-04T03:33:25;100389.28;;;2.39;66.77
51321;BME280;38732;49.556;6.286;2023-03-04T03:35:53;100389.47;;;2.42;65.89
51321;BME280;38732;49.556;6.286;2023-03-04T03:38:21;100393.25;;;2.32;66.34
51321;BME280;38732;49.556;6.286;2023-03-04T03:40:49;100387.97;;;2.29;66.14
51321;BME280;38732;49.556;6.286;2023-03-04T03:43:18;100392.22;;;2.29;67.88
51321;BME280;38732;49.556;6.286;2023-03-04T03:45:46;100392.56;;;2.36;66.35
51321;BME280;38732;49.556;6.286;2023-03-04T03:48:14;100398.53;;;2.37;66.21
51321;BME280;38732;49.556;6.286;2023-03-04T03:50:43;100391.19;;;2.43;66.65
51321;BME280;38732;49.556;6.286;2023-03-04T03:53:11;100387.28;;;2.50;66.44
51321;BME280;38732;49.556;6.286;2023-03-04T03:55:40;100386.09;;;2.61;66.47
51321;BME280;38732;49.556;6.286;2023-03-04T03:58:08;100383.63;;;2.63;66.55
51321;BME280;38732;49.556;6.286;2023-03-04T04:00:36;100388.25;;;2.71;66.70
51321;BME280;38732;49.556;6.286;2023-03-04T04:03:05;100384.91;;;2.72;67.61
51321;BME280;38732;49.556;6.286;2023-03-04T04:05:33;100375.94;;;2.80;67.00
51321;BME280;38732;49.556;6.286;2023-03-04T04:08:01;100378.50;;;2.80;67.95
51321;BME280;38732;49.556;6.286;2023-03-04T04:10:29;100382.00;;;2.83;67.68
51321;BME280;38732;49.556;6.286;2023-03-04T04:12:58;100383.13;;;2.89;67.58
51321;BME280;38732;49.556;6.286;2023-03-04T04:15:26;100379.84;;;2.92;68.38
51321;BME280;38732;49.556;6.286;2023-03-04T04:17:54;100379.41;;;3.00;68.27
51321;BME280;38732;49.556;6.286;2023-03-04T04:20:22;100379.44;;;3.02;68.43
51321;BME280;38732;49.556;6.286;2023-03-04T04:22:50;100377.09;;;3.07;68.59
51321;BME280;38732;49.556;6.286;2023-03-04T04:25:18;100368.19;;;3.16;68.76
51321;BME280;38732;49.556;6.286;2023-03-04T04:27:47;100370.00;;;3.19;69.09
51321;BME280;38732;49.556;6.286;2023-03-04T04:30:15;100361.88;;;3.28;69.53
51321;BME280;38732;49.556;6.286;2023-03-04T04:32:44;100361.19;;;3.32;69.86
51321;BME280;38732;49.556;6.286;2023-03-04T04:35:12;100358.09;;;3.39;69.90
51321;BME280;38732;49.556;6.286;2023-03-04T04:37:40;100355.69;;;3.42;69.43
51321;BME280;38732;49.556;6.286;2023-03-04T04:40:09;100359.16;;;3.44;70.47
51321;BME280;38732;49.556;6.286;2023-03-04T04:42:37;100356.03;;;3.50;70.09
51321;BME280;38732;49.556;6.286;2023-03-04T04:45:06;100359.28;;;3.66;69.40
51321;BME280;38732;49.556;6.286;2023-03-04T04:47:34;100365.88;;;3.61;69.26
51321;BME280;38732;49.556;6.286;2023-03-04T04:50:03;100356.72;;;3.66;68.54
51321;BME280;38732;49.556;6.286;2023-03-04T04:52:31;100367.56;;;3.61;68.84
51321;BME280;38732;49.556;6.286;2023-03-04T04:54:59;100364.88;;;3.58;67.43
51321;BME280;38732;49.556;6.286;2023-03-04T04:57:28;100374.50;;;3.44;66.67
51321;BME280;38732;49.556;6.286;2023-03-04T04:59:56;100370.19;;;3.43;67.68
51321;BME280;38732;49.556;6.286;2023-03-04T05:02:24;100379.47;;;3.41;67.24
51321;BME280;38732;49.556;6.286;2023-03-04T05:04:52;100373.53;;;3.42;67.81
51321;BME280;38732;49.556;6.286;2023-03-04T05:07:20;100380.50;;;3.44;67.87
51321;BME280;38732;49.556;6.286;2023-03-04T05:09:49;100377.31;;;3.50;67.37
51321;BME280;38732;49.556;6.286;2023-03-04T05:12:17;100383.97;;;3.46;67.28
51321;BME280;38732;49.556;6.286;2023-03-04T05:14:45;100384.97;;;3.31;68.66
51321;BME280;38732;49.556;6.286;2023-03-04T05:17:13;100383.91;;;3.45;67.11
51321;BME280;38732;49.556;6.286;2023-03-04T05:19:41;100386.25;;;3.40;66.87
51321;BME280;38732;49.556;6.286;2023-03-04T05:22:09;100387.63;;;3.32;68.64
51321;BME280;38732;49.556;6.286;2023-03-04T05:24:38;100386.31;;;3.42;68.78
51321;BME280;38732;49.556;6.286;2023-03-04T05:27:06;100393.09;;;3.41;67.53
51321;BME280;38732;49.556;6.286;2023-03-04T05:29:34;100387.22;;;3.42;69.36
51321;BME280;38732;49.556;6.286;2023-03-04T05:32:03;100388.19;;;3.46;69.38
51321;BME280;38732;49.556;6.286;2023-03-04T05:34:32;100382.44;;;3.50;68.93
51321;BME280;38732;49.556;6.286;2023-03-04T05:37:00;100380.31;;;3.61;68.96
51321;BME280;38732;49.556;6.286;2023-03-04T05:39:28;100381.38;;;3.66;68.21
51321;BME280;38732;49.556;6.286;2023-03-04T05:41:56;100382.13;;;3.63;68.41
51321;BME280;38732;49.556;6.286;2023-03-04T05:44:24;100382.81;;;3.59;68.78
51321;BME280;38732;49.556;6.286;2023-03-04T05:46:53;100384.59;;;3.62;69.60
51321;BME280;38732;49.556;6.286;2023-03-04T05:49:21;100384.81;;;3.66;70.16
51321;BME280;38732;49.556;6.286;2023-03-04T05:51:49;100381.72;;;3.74;69.97
51321;BME280;38732;49.556;6.286;2023-03-04T05:54:17;100391.88;;;3.72;69.88
51321;BME280;38732;49.556;6.286;2023-03-04T05:56:45;100386.91;;;3.75;70.14
51321;BME280;38732;49.556;6.286;2023-03-04T05:59:14;100385.41;;;3.80;70.21
51321;BME280;38732;49.556;6.286;2023-03-04T06:01:42;100376.72;;;3.77;70.60
51321;BME280;38732;49.556;6.286;2023-03-04T06:04:10;100383.63;;;3.79;70.91
51321;BME280;38732;49.556;6.286;2023-03-04T06:06:38;100384.00;;;3.87;69.50
51321;BME280;38732;49.556;6.286;2023-03-04T06:09:06;100384.22;;;3.93;67.52
51321;BME280;38732;49.556;6.286;2023-03-04T06:11:35;100384.75;;;3.84;68.27
51321;BME280;38732;49.556;6.286;2023-03-04T06:14:03;100386.19;;;3.79;68.77
51321;BME280;38732;49.556;6.286;2023-03-04T06:16:31;100384.53;;;3.80;69.23
51321;BME280;38732;49.556;6.286;2023-03-04T06:18:59;100395.06;;;3.87;67.67
51321;BME280;38732;49.556;6.286;2023-03-04T06:21:28;100396.50;;;3.81;67.54
51321;BME280;38732;49.556;6.286;2023-03-04T06:23:56;100388.59;;;3.75;68.13
51321;BME280;38732;49.556;6.286;2023-03-04T06:26:24;100388.81;;;3.81;68.23
51321;BME280;38732;49.556;6.286;2023-03-04T06:28:52;100393.59;;;3.93;66.59
51321;BME280;38732;49.556;6.286;2023-03-04T06:31:21;100397.13;;;3.75;67.41
51321;BME280;38732;49.556;6.286;2023-03-04T06:33:49;100399.78;;;3.78;67.59
51321;BME280;38732;49.556;6.286;2023-03-04T06:36:17;100403.84;;;3.73;68.37
51321;BME280;38732;49.556;6.286;2023-03-04T06:38:46;100413.84;;;3.68;69.30
51321;BME280;38732;49.556;6.286;2023-03-04T06:41:14;100411.56;;;3.75;68.75
51321;BME280;38732;49.556;6.286;2023-03-04T06:43:42;100416.09;;;3.82;66.92
51321;BME280;38732;49.556;6.286;2023-03-04T06:46:10;100407.94;;;3.70;68.45
51321;BME280;38732;49.556;6.286;2023-03-04T06:48:39;100414.03;;;3.73;69.07
51321;BME280;38732;49.556;6.286;2023-03-04T06:51:08;100416.06;;;3.80;69.52
51321;BME280;38732;49.556;6.286;2023-03-04T06:53:37;100424.59;;;3.81;69.15
51321;BME280;38732;49.556;6.286;2023-03-04T06:56:09;100423.91;;;3.85;69.46
51321;BME280;38732;49.556;6.286;2023-03-04T06:58:38;100428.94;;;3.83;69.29
51321;BME280;38732;49.556;6.286;2023-03-04T07:01:16;100422.34;;;3.88;68.94
51321;BME280;38732;49.556;6.286;2023-03-04T07:03:46;100424.28;;;3.94;69.02
51321;BME280;38732;49.556;6.286;2023-03-04T07:06:16;100427.34;;;3.85;69.19
51321;BME280;38732;49.556;6.286;2023-03-04T07:08:45;100422.78;;;3.99;70.23
51321;BME280;38732;49.556;6.286;2023-03-04T07:11:14;100428.09;;;4.04;70.27
51321;BME280;38732;49.556;6.286;2023-03-04T07:13:43;100432.47;;;4.06;70.01
51321;BME280;38732;49.556;6.286;2023-03-04T07:16:13;100434.34;;;4.31;68.70
51321;BME280;38732;49.556;6.286;2023-03-04T07:18:43;100429.38;;;4.35;67.49
51321;BME280;38732;49.556;6.286;2023-03-04T07:21:13;100427.56;;;4.32;67.63
51321;BME280;38732;49.556;6.286;2023-03-04T07:23:41;100437.38;;;4.42;67.60
51321;BME280;38732;49.556;6.286;2023-03-04T07:26:10;100443.34;;;4.43;66.86
51321;BME280;38732;49.556;6.286;2023-03-04T07:28:38;100448.34;;;4.40;68.12
51321;BME280;38732;49.556;6.286;2023-03-04T07:31:12;100455.94;;;4.38;68.48
51321;BME280;38732;49.556;6.286;2023-03-04T07:33:46;100450.38;;;4.48;68.78
51321;BME280;38732;49.556;6.286;2023-03-04T07:36:14;100449.94;;;4.59;69.57
51321;BME280;38732;49.556;6.286;2023-03-04T07:38:48;100455.66;;;4.74;69.66
51321;BME280;38732;49.556;6.286;2023-03-04T07:41:17;100455.72;;;4.75;69.53
51321;BME280;38732;49.556;6.286;2023-03-04T07:43:46;100465.56;;;4.87;70.46
51321;BME280;38732;49.556;6.286;2023-03-04T07:46:15;100457.53;;;5.01;69.57
51321;BME280;38732;49.556;6.286;2023-03-04T07:48:43;100458.78;;;5.10;68.52
51321;BME280;38732;49.556;6.286;2023-03-04T07:51:15;100462.91;;;5.07;69.28
51321;BME280;38732;49.556;6.286;2023-03-04T07:53:46;100463.41;;;5.21;69.47
51321;BME280;38732;49.556;6.286;2023-03-04T07:56:20;100466.44;;;5.33;67.95
51321;BME280;38732;49.556;6.286;2023-03-04T07:58:49;100464.16;;;5.40;69.00
51321;BME280;38732;49.556;6.286;2023-03-04T08:01:20;100464.50;;;5.50;67.23
51321;BME280;38732;49.556;6.286;2023-03-04T08:03:48;100464.13;;;5.63;67.22
51321;BME280;38732;49.556;6.286;2023-03-04T08:06:18;100468.72;;;5.72;63.91
51321;BME280;38732;49.556;6.286;2023-03-04T08:08:47;100467.69;;;5.67;64.94
51321;BME280;38732;49.556;6.286;2023-03-04T08:11:18;100465.00;;;5.63;65.41
51321;BME280;38732;49.556;6.286;2023-03-04T08:13:47;100463.44;;;5.67;65.32
51321;BME280;38732;49.556;6.286;2023-03-04T08:16:17;100459.25;;;5.69;65.71
51321;BME280;38732;49.556;6.286;2023-03-04T08:18:48;100459.06;;;5.65;66.08
51321;BME280;38732;49.556;6.286;2023-03-04T08:21:17;100469.53;;;5.71;66.34
51321;BME280;38732;49.556;6.286;2023-03-04T08:23:46;100469.84;;;5.80;65.50
51321;BME280;38732;49.556;6.286;2023-03-04T08:26:18;100461.16;;;5.76;66.18
51321;BME280;38732;49.556;6.286;2023-03-04T08:28:48;100462.16;;;5.80;67.28
51321;BME280;38732;49.556;6.286;2023-03-04T08:31:17;100461.50;;;5.86;67.57
51321;BME280;38732;49.556;6.286;2023-03-04T08:33:45;100458.69;;;6.02;67.34
51321;BME280;38732;49.556;6.286;2023-03-04T08:36:14;100453.47;;;6.24;64.52
51321;BME280;38732;49.556;6.286;2023-03-04T08:38:43;100450.47;;;6.38;62.87
51321;BME280;38732;49.556;6.286;2023-03-04T08:41:11;100449.09;;;6.47;61.66
51321;BME280;38732;49.556;6.286;2023-03-04T08:43:40;100451.03;;;6.55;61.75
51321;BME280;38732;49.556;6.286;2023-03-04T08:46:08;100450.44;;;6.63;61.22
51321;BME280;38732;49.556;6.286;2023-03-04T08:48:36;100449.13;;;6.76;59.46
51321;BME280;38732;49.556;6.286;2023-03-04T08:51:10;100452.31;;;6.96;59.51
51321;BME280;38732;49.556;6.286;2023-03-04T08:53:39;100445.72;;;7.04;58.98
51321;BME280;38732;49.556;6.286;2023-03-04T08:56:08;100452.00;;;7.14;58.99
51321;BME280;38732;49.556;6.286;2023-03-04T08:58:37;100447.25;;;7.26;57.97
51321;BME280;38732;49.556;6.286;2023-03-04T09:01:10;100444.97;;;7.37;57.80
51321;BME280;38732;49.556;6.286;2023-03-04T09:03:39;100438.97;;;7.37;58.08
51321;BME280;38732;49.556;6.286;2023-03-04T09:06:09;100443.25;;;7.07;60.02
51321;BME280;38732;49.556;6.286;2023-03-04T09:08:38;100445.69;;;6.76;60.50
51321;BME280;38732;49.556;6.286;2023-03-04T09:11:07;100445.25;;;7.18;58.71
51321;BME280;38732;49.556;6.286;2023-03-04T09:13:35;100441.66;;;7.41;58.44
51321;BME280;38732;49.556;6.286;2023-03-04T09:16:08;100448.38;;;7.68;57.82
51321;BME280;38732;49.556;6.286;2023-03-04T09:18:37;100436.06;;;7.86;56.61
51321;BME280;38732;49.556;6.286;2023-03-04T09:21:06;100450.00;;;7.96;56.05
51321;BME280;38732;49.556;6.286;2023-03-04T09:23:35;100444.44;;;7.81;56.33
51321;BME280;38732;49.556;6.286;2023-03-04T09:26:20;100441.81;;;8.11;55.14
51321;BME280;38732;49.556;6.286;2023-03-04T09:28:52;100456.47;;;7.50;57.76
51321;BME280;38732;49.556;6.286;2023-03-04T09:31:21;100450.16;;;7.69;56.32
51321;BME280;38732;49.556;6.286;2023-03-04T09:33:51;100441.50;;;7.98;54.65
51321;BME280;38732;49.556;6.286;2023-03-04T09:36:20;100448.84;;;8.18;54.82
51321;BME280;38732;49.556;6.286;2023-03-04T09:38:48;100457.44;;;8.18;55.13
51321;BME280;38732;49.556;6.286;2023-03-04T09:41:38;100454.91;;;7.87;55.42
51321;BME280;38732;49.556;6.286;2023-03-04T09:44:20;100451.44;;;8.18;54.40
51321;BME280;38732;49.556;6.286;2023-03-04T09:46:49;100446.94;;;8.11;54.19
51321;BME280;38732;49.556;6.286;2023-03-04T09:49:19;100457.22;;;8.09;54.69
51321;BME280;38732;49.556;6.286;2023-03-04T09:52:17;100455.59;;;8.13;54.35
51321;BME280;38732;49.556;6.286;2023-03-04T09:57:51;100456.25;;;8.39;53.08
51321;BME280;38732;49.556;6.286;2023-03-04T10:03:05;100459.66;;;8.38;54.22
51321;BME280;38732;49.556;6.286;2023-03-04T10:05:37;100462.00;;;8.29;54.47
51321;BME280;38732;49.556;6.286;2023-03-04T10:08:23;100460.25;;;8.61;53.77
51321;BME280;38732;49.556;6.286;2023-03-04T10:10:55;100464.69;;;8.67;52.75
51321;BME280;38732;49.556;6.286;2023-03-04T10:13:43;100460.63;;;8.78;52.45
51321;BME280;38732;49.556;6.286;2023-03-04T10:16:19;100456.34;;;8.77;52.36
51321;BME280;38732;49.556;6.286;2023-03-04T10:18:58;100461.50;;;8.77;52.04
51321;BME280;38732;49.556;6.286;2023-03-04T10:21:41;100456.41;;;8.80;52.37
51321;BME280;38732;49.556;6.286;2023-03-04T10:24:11;100457.19;;;8.77;51.47
51321;BME280;38732;49.556;6.286;2023-03-04T10:26:44;100454.69;;;8.79;52.66
51321;BME280;38732;49.556;6.286;2023-03-04T10:29:16;100457.06;;;8.71;51.54
51321;BME280;38732;49.556;6.286;2023-03-04T10:31:45;100450.22;;;8.72;51.98
51321;BME280;38732;49.556;6.286;2023-03-04T10:34:14;100453.88;;;8.83;51.63
51321;BME280;38732;49.556;6.286;2023-03-04T10:36:54;100450.41;;;8.81;51.79
51321;BME280;38732;49.556;6.286;2023-03-04T10:39:29;100448.91;;;8.91;51.17
51321;BME280;38732;49.556;6.286;2023-03-04T10:42:04;100445.47;;;8.89;52.85
51321;BME280;38732;49.556;6.286;2023-03-04T10:44:33;100446.84;;;8.74;53.10
51321;BME280;38732;49.556;6.286;2023-03-04T10:47:02;100436.41;;;9.07;51.28
51321;BME280;38732;49.556;6.286;2023-03-04T10:49:56;100427.59;;;8.96;50.91
51321;BME280;38732;49.556;6.286;2023-03-04T10:55:13;100422.94;;;9.21;50.95
51321;BME280;38732;49.556;6.286;2023-03-04T10:57:43;100427.28;;;9.22;49.89
51321;BME280;38732;49.556;6.286;2023-03-04T11:00:31;100428.88;;;9.17;51.34
51321;BME280;38732;49.556;6.286;2023-03-04T11:03:23;100427.53;;;9.36;49.68
51321;BME280;38732;49.556;6.286;2023-03-04T11:08:40;100429.50;;;9.05;49.99
51321;BME280;38732;49.556;6.286;2023-03-04T11:11:29;100433.91;;;9.11;50.02
51321;BME280;38732;49.556;6.286;2023-03-04T11:14:00;100420.78;;;9.41;49.33
51321;BME280;38732;49.556;6.286;2023-03-04T11:16:31;100422.97;;;9.22;49.52
51321;BME280;38732;49.556;6.286;2023-03-04T11:19:12;100421.06;;;9.55;48.66
51321;BME280;38732;49.556;6.286;2023-03-04T11:21:41;100416.22;;;9.71;48.50
51321;BME280;38732;49.556;6.286;2023-03-04T11:24:13;100420.97;;;9.50;48.31
51321;BME280;38732;49.556;6.286;2023-03-04T11:26:46;100414.22;;;9.57;48.26
51321;BME280;38732;49.556;6.286;2023-03-04T11:29:21;100418.25;;;9.42;49.46
51321;BME280;38732;49.556;6.286;2023-03-04T11:31:59;100412.84;;;9.76;48.60
51321;BME280;38732;49.556;6.286;2023-03-04T11:34:43;100414.53;;;9.72;48.27
51321;BME280;38732;49.556;6.286;2023-03-04T11:40:38;100406.16;;;9.85;48.21
51321;BME280;38732;49.556;6.286;2023-03-04T11:43:23;100404.00;;;10.08;47.83
51321;BME280;38732;49.556;6.286;2023-03-04T11:48:50;100403.31;;;10.20;46.86
51321;BME280;38732;49.556;6.286;2023-03-04T11:54:10;100400.03;;;9.79;47.52
51321;BME280;38732;49.556;6.286;2023-03-04T11:56:44;100389.63;;;10.26;47.18
51321;BME280;38732;49.556;6.286;2023-03-04T11:59:30;100390.19;;;10.06;47.91
51321;BME280;38732;49.556;6.286;2023-03-04T12:04:56;100390.50;;;9.29;48.26
51321;BME280;38732;49.556;6.286;2023-03-04T12:15:57;100372.97;;;10.60;45.48
51321;BME280;38732;49.556;6.286;2023-03-04T12:27:23;100356.88;;;10.78;44.77
51321;BME280;38732;49.556;6.286;2023-03-04T12:30:05;100356.53;;;10.52;46.92
51321;BME280;38732;49.556;6.286;2023-03-04T12:32:53;100359.44;;;9.23;50.21
51321;BME280;38732;49.556;6.286;2023-03-04T12:46:10;100338.88;;;10.84;45.46
51321;BME280;38732;49.556;6.286;2023-03-04T12:48:51;100341.38;;;9.67;48.91
51321;BME280;38732;49.556;6.286;2023-03-04T12:54:45;100340.41;;;10.12;47.62
51321;BME280;38732;49.556;6.286;2023-03-04T12:57:23;100330.56;;;10.43;46.84
51321;BME280;38732;49.556;6.286;2023-03-04T13:02:41;100329.94;;;9.07;50.67
51321;BME280;38732;49.556;6.286;2023-03-04T13:05:41;100330.09;;;9.63;48.85
51321;BME280;38732;49.556;6.286;2023-03-04T13:10:52;100326.69;;;10.14;47.82
51321;BME280;38732;49.556;6.286;2023-03-04T13:13:40;100320.22;;;10.43;47.21
51321;BME280;38732;49.556;6.286;2023-03-04T13:18:46;100321.78;;;10.28;47.39
51321;BME280;38732;49.556;6.286;2023-03-04T13:21:27;100320.06;;;10.29;47.35
51321;BME280;38732;49.556;6.286;2023-03-04T13:23:57;100321.66;;;10.25;47.94
51321;BME280;38732;49.556;6.286;2023-03-04T13:26:29;100319.41;;;9.90;48.95
51321;BME280;38732;49.556;6.286;2023-03-04T13:32:02;100313.09;;;9.73;50.23
51321;BME280;38732;49.556;6.286;2023-03-04T13:34:49;100303.13;;;9.94;48.99
51321;BME280;38732;49.556;6.286;2023-03-04T13:37:31;100310.31;;;10.14;48.54
51321;BME280;38732;49.556;6.286;2023-03-04T13:42:48;100300.81;;;10.11;47.64
51321;BME280;38732;49.556;6.286;2023-03-04T13:45:34;100308.56;;;10.13;48.16
51321;BME280;38732;49.556;6.286;2023-03-04T13:48:07;100307.72;;;10.11;48.68
51321;BME280;38732;49.556;6.286;2023-03-04T13:50:48;100310.38;;;10.17;48.81
51321;BME280;38732;49.556;6.286;2023-03-04T13:56:11;100305.47;;;10.32;48.02
51321;BME280;38732;49.556;6.286;2023-03-04T13:58:47;100299.34;;;10.27;48.13
51321;BME280;38732;49.556;6.286;2023-03-04T14:01:23;100297.53;;;10.23;48.91
51321;BME280;38732;49.556;6.286;2023-03-04T14:03:52;100307.41;;;9.92;48.64
51321;BME280;38732;49.556;6.286;2023-03-04T14:08:54;100298.31;;;10.18;48.44
51321;BME280;38732;49.556;6.286;2023-03-04T14:11:37;100295.06;;;10.28;47.32
51321;BME280;38732;49.556;6.286;2023-03-04T14:14:10;100288.03;;;10.21;48.22
51321;BME280;38732;49.556;6.286;2023-03-04T14:16:48;100285.56;;;10.27;47.95
51321;BME280;38732;49.556;6.286;2023-03-04T14:19:27;100288.06;;;10.22;48.68
51321;BME280;38732;49.556;6.286;2023-03-04T14:21:58;100285.50;;;10.22;48.71
51321;BME280;38732;49.556;6.286;2023-03-04T14:24:27;100282.22;;;10.32;47.23
51321;BME280;38732;49.556;6.286;2023-03-04T14:27:12;100277.91;;;10.30;48.08
51321;BME280;38732;49.556;6.286;2023-03-04T14:29:41;100281.22;;;10.24;48.03
51321;BME280;38732;49.556;6.286;2023-03-04T14:32:10;100275.03;;;10.11;47.40
51321;BME280;38732;49.556;6.286;2023-03-04T14:34:39;100263.13;;;10.23;47.99
51321;BME280;38732;49.556;6.286;2023-03-04T14:37:22;100268.44;;;10.30;47.82
51321;BME280;38732;49.556;6.286;2023-03-04T14:39:55;100267.50;;;10.27;47.87
51321;BME280;38732;49.556;6.286;2023-03-04T14:42:33;100264.72;;;10.13;48.58